Time,TemperatureF,DewpointF,PressureIn,WindDirection,WindDirectionDegrees,WindSpeedMPH,WindSpeedGustMPH,Humidity,HourlyPrecipIn,Conditions,Clouds,dailyrainin,SoftwareType,DateUTC
2013-11-03 00:02:00,-999.0,-99.9,30.12,NW,312,0.0,1.0,-999,-99.99,,,-99.99,,2013-11-03 04:02:00,
2013-11-03 00:14:00,50.0,39.0,30.12,NW,312,0.0,1.0,66,0.00,,,0.02,,2013-11-03 04:14:00,
2013-11-03 00:23:00,50.0,39.0,30.12,NW,312,0.0,1.0,66,0.00,,,0.02,,2013-11-03 04:23:00,
2013-11-03 10:53:00,56.0,45.0,30.29,West,269,0.0,1.0,66,0.00,,,0.02,,2013-11-03 15:53:00,
2013-11-03 11:03:00,56.0,45.0,30.29,West,269,0.0,1.0,66,0.00,,,0.02,,2013-11-03 16:03:00,
2013-11-03 11:23:00,59.0,43.0,30.30,NNW,344,0.0,1.0,55,0.00,,,0.02,,2013-11-03 16:23:00,
2013-11-03 11:34:00,59.0,43.0,30.30,NNW,344,0.0,1.0,55,0.00,,,0.02,,2013-11-03 16:34:00,
2013-11-03 11:43:00,59.0,43.0,30.30,NNW,344,0.0,1.0,55,0.00,,,0.02,,2013-11-03 16:43:00,
2013-11-03 11:53:00,59.0,43.0,30.30,NNW,344,0.0,1.0,55,0.00,,,0.02,,2013-11-03 16:53:00,
2013-11-03 13:52:00,62.0,39.0,30.24,NE,39,0.0,2.0,43,0.00,,,0.02,,2013-11-03 18:52:00,
2013-11-03 14:02:00,62.0,39.0,30.24,NE,39,0.0,2.0,43,0.00,,,0.02,,2013-11-03 19:02:00,
2013-11-03 14:22:00,62.0,38.0,30.24,East,96,0.0,1.0,41,0.00,,,0.02,,2013-11-03 19:22:00,
2013-11-03 14:33:00,62.0,38.0,30.24,East,96,0.0,1.0,41,0.00,,,0.02,,2013-11-03 19:33:00,
2013-11-03 14:42:00,62.0,38.0,30.24,East,96,0.0,1.0,41,0.00,,,0.02,,2013-11-03 19:42:00,
2013-11-03 14:53:00,62.0,38.0,30.24,NNE,32,0.0,2.0,41,0.00,,,0.02,,2013-11-03 19:53:00,
2013-11-03 15:02:00,62.0,38.0,30.24,NNE,32,0.0,2.0,41,0.00,,,0.02,,2013-11-03 20:02:00,
2013-11-03 15:22:00,61.0,38.0,30.23,NNE,32,0.0,1.0,43,0.00,,,0.02,,2013-11-03 20:22:00,
2013-11-03 15:32:00,61.0,38.0,30.23,NNE,32,0.0,1.0,43,0.00,,,0.02,,2013-11-03 20:32:00,
2013-11-03 15:42:00,61.0,38.0,30.23,NNE,32,0.0,1.0,43,0.00,,,0.02,,2013-11-03 20:42:00,
2013-11-03 15:52:00,61.0,39.0,30.23,NNE,32,0.0,1.0,44,0.00,,,0.00,,2013-11-03 20:52:00,
2013-11-03 16:02:00,61.0,39.0,30.23,NNE,32,0.0,1.0,44,0.00,,,0.00,,2013-11-03 21:02:00,
2013-11-03 16:22:00,61.0,40.0,30.23,NNE,32,0.0,0.0,45,0.00,,,0.00,,2013-11-03 21:22:00,
2013-11-03 16:34:00,61.0,40.0,30.23,NNE,32,0.0,0.0,45,0.00,,,0.00,,2013-11-03 21:34:00,
2013-11-03 16:43:00,61.0,40.0,30.23,NNE,32,0.0,0.0,45,0.00,,,0.00,,2013-11-03 21:43:00,
2013-11-03 16:55:00,61.0,40.0,30.24,NNE,32,0.0,0.0,45,0.00,,,0.00,,2013-11-03 21:55:00,
2013-11-03 17:03:00,61.0,40.0,30.24,NNE,32,0.0,0.0,45,0.00,,,0.00,,2013-11-03 22:03:00,
2013-11-03 17:13:00,61.0,40.0,30.24,NNE,32,0.0,0.0,45,0.00,,,0.00,,2013-11-03 22:13:00,
2013-11-03 17:22:00,60.0,39.0,30.24,NNE,32,0.0,0.0,46,0.00,,,0.00,,2013-11-03 22:22:00,
2013-11-03 17:34:00,60.0,39.0,30.24,NNE,32,0.0,0.0,46,0.00,,,0.00,,2013-11-03 22:34:00,
2013-11-03 17:43:00,60.0,39.0,30.24,NNE,32,0.0,0.0,46,0.00,,,0.00,,2013-11-03 22:43:00,
2013-11-03 17:52:00,59.0,43.0,30.24,NNE,32,0.0,0.0,55,0.00,,,0.00,,2013-11-03 22:52:00,
2013-11-03 18:02:00,59.0,43.0,30.24,NNE,32,0.0,0.0,55,0.00,,,0.00,,2013-11-03 23:02:00,
2013-11-03 18:23:00,56.0,43.0,30.25,NNE,32,0.0,0.0,61,0.00,,,0.00,,2013-11-03 23:23:00,
2013-11-03 18:34:00,56.0,43.0,30.25,NNE,32,0.0,0.0,61,0.00,,,0.00,,2013-11-03 23:34:00,
2013-11-03 18:42:00,56.0,43.0,30.25,NNE,32,0.0,0.0,61,0.00,,,0.00,,2013-11-03 23:42:00,
2013-11-03 18:53:00,53.0,42.0,30.26,NNE,32,0.0,0.0,67,0.00,,,0.00,,2013-11-03 23:53:00,
2013-11-03 19:02:00,53.0,42.0,30.26,NNE,32,0.0,0.0,67,0.00,,,0.00,,2013-11-04 00:02:00,
2013-11-03 19:22:00,51.0,42.0,30.27,NNE,32,0.0,0.0,70,0.00,,,0.00,,2013-11-04 00:22:00,
2013-11-03 19:32:00,51.0,42.0,30.27,NNE,32,0.0,0.0,70,0.00,,,0.00,,2013-11-04 00:32:00,
2013-11-03 19:42:00,51.0,42.0,30.27,NNE,32,0.0,0.0,70,0.00,,,0.00,,2013-11-04 00:42:00,
2013-11-03 19:52:00,51.0,42.0,30.29,NNE,32,0.0,0.0,72,0.00,,,0.00,,2013-11-04 00:52:00,
2013-11-03 20:02:00,51.0,42.0,30.29,NNE,32,0.0,0.0,72,0.00,,,0.00,,2013-11-04 01:02:00,
2013-11-03 20:22:00,50.0,41.0,30.28,NNE,32,0.0,0.0,72,0.00,,,0.00,,2013-11-04 01:22:00,
2013-11-03 20:32:00,50.0,41.0,30.28,NNE,32,0.0,0.0,72,0.00,,,0.00,,2013-11-04 01:32:00,
2013-11-03 20:42:00,50.0,41.0,30.28,NNE,32,0.0,0.0,72,0.00,,,0.00,,2013-11-04 01:42:00,
2013-11-03 20:52:00,50.0,41.0,30.28,NNE,32,0.0,0.0,72,0.00,,,0.00,,2013-11-04 01:52:00,
2013-11-03 21:02:00,50.0,41.0,30.28,NNE,32,0.0,0.0,72,0.00,,,0.00,,2013-11-04 02:02:00,
2013-11-03 21:22:00,48.0,41.0,30.29,NNE,32,0.0,0.0,78,0.00,,,0.00,,2013-11-04 02:22:00,
2013-11-03 21:32:00,48.0,41.0,30.29,NNE,32,0.0,0.0,78,0.00,,,0.00,,2013-11-04 02:32:00,
2013-11-03 21:42:00,48.0,41.0,30.29,NNE,32,0.0,0.0,78,0.00,,,0.00,,2013-11-04 02:42:00,
2013-11-03 21:53:00,47.0,42.0,30.30,NNE,32,0.0,0.0,83,0.00,,,0.00,,2013-11-04 02:53:00,
2013-11-03 22:02:00,47.0,42.0,30.30,NNE,32,0.0,0.0,83,0.00,,,0.00,,2013-11-04 03:02:00,
2013-11-03 22:22:00,46.0,41.0,30.32,NNE,32,0.0,0.0,84,0.00,,,0.00,,2013-11-04 03:22:00,
2013-11-03 22:34:00,46.0,41.0,30.32,NNE,32,0.0,0.0,84,0.00,,,0.00,,2013-11-04 03:34:00,
2013-11-03 22:44:00,46.0,41.0,30.32,NNE,32,0.0,0.0,84,0.00,,,0.00,,2013-11-04 03:44:00,
2013-11-03 22:54:00,46.0,42.0,30.33,ESE,105,0.0,0.0,86,0.00,,,0.00,,2013-11-04 03:54:00,
2013-11-03 23:04:00,46.0,42.0,30.33,ESE,105,0.0,0.0,86,0.00,,,0.00,,2013-11-04 04:04:00,
2013-11-03 23:24:00,45.0,41.0,30.34,ESE,105,0.0,0.0,87,0.00,,,0.00,,2013-11-04 04:24:00,
2013-11-03 23:33:00,45.0,42.0,30.35,ESE,105,0.0,0.0,88,0.00,,,0.00,,2013-11-04 04:33:00,
2013-11-03 23:34:00,45.0,41.0,30.34,ESE,105,0.0,0.0,87,0.00,,,0.00,,2013-11-04 04:34:00,
2013-11-03 23:43:00,45.0,41.0,30.34,ESE,105,0.0,0.0,87,0.00,,,0.00,,2013-11-04 04:43:00,
2013-11-03 23:53:00,45.0,42.0,30.35,ESE,105,0.0,0.0,88,0.00,,,0.00,,2013-11-04 04:53:00,